Time;durP1;ratioP1;P1;durP2;ratioP2;P2;SDS_P1;SDS_P2;PMS_P1;PMS_P2;Temp;Humidity;BMP_temperature;BMP_pressure;BME280_temperature;BME280_humidity;BME280_pressure;Samples;Min_cycle;Max_cycle;Signal;HPM_P1;HPM_P2
2021/12/15 00:00:25;;;;;;;34.10;20.37;;;;;;;5.52;100.00;152779.47;5093727;28;20464;-75
2021/12/15 00:03:02;;;;;;;30.50;21.70;;;;;;;5.51;100.00;152776.88;5088946;28;20441;-76
2021/12/15 00:05:40;;;;;;;36.17;21.00;;;;;;;5.52;100.00;152779.47;5091803;28;20456;-76
2021/12/15 00:08:16;;;;;;;30.30;19.43;;;;;;;5.50;100.00;152774.31;5094139;28;20428;-75
2021/12/15 00:10:52;;;;;;;28.80;20.87;;;;;;;5.51;100.00;152778.19;5083352;28;20433;-76
2021/12/15 00:13:27;;;;;;;33.17;19.93;;;;;;;5.54;100.00;152784.63;5075561;28;20449;-76
2021/12/15 00:16:03;;;;;;;26.90;19.10;;;;;;;5.50;100.00;152774.31;5090778;28;20523;-76
2021/12/15 00:18:42;;;;;;;30.50;19.30;;;;;;;5.49;100.00;152773.03;5094153;28;21208;-76
2021/12/15 00:21:20;;;;;;;32.07;20.30;;;;;;;5.50;100.00;152774.31;5094089;28;20950;-76
2021/12/15 00:23:57;;;;;;;31.80;19.67;;;;;;;5.50;100.00;152774.31;5092496;28;20441;-76
2021/12/15 00:26:32;;;;;;;32.73;18.50;;;;;;;5.50;100.00;152775.63;5094324;28;20441;-76
2021/12/15 00:29:08;;;;;;;34.50;18.70;;;;;;;5.52;100.00;152779.47;5077891;28;20444;-75
2021/12/15 00:31:45;;;;;;;23.90;17.47;;;;;;;5.52;100.00;152780.78;5081481;28;20940;-76
2021/12/15 00:34:22;;;;;;;27.20;17.43;;;;;;;5.54;100.00;152784.63;5067414;28;20440;-76
2021/12/15 00:36:58;;;;;;;28.53;18.40;;;;;;;5.57;100.00;152792.38;5078161;28;20928;-76
2021/12/15 00:39:33;;;;;;;27.90;18.53;;;;;;;5.58;100.00;152794.97;5091554;28;20830;-76
2021/12/15 00:42:09;;;;;;;27.97;18.40;;;;;;;5.59;100.00;152797.50;5070524;28;20491;-75
2021/12/15 00:44:46;;;;;;;29.70;19.77;;;;;;;5.60;100.00;152800.09;5077550;28;20991;-76
2021/12/15 00:47:22;;;;;;;30.60;19.60;;;;;;;5.61;100.00;152802.72;5093361;28;20456;-75
2021/12/15 00:50:06;;;;;;;25.57;18.10;;;;;;;5.59;100.00;152797.50;5081271;28;20440;-76
2021/12/15 00:52:44;;;;;;;26.20;18.30;;;;;;;5.54;100.00;152784.63;5092244;28;20452;-75
2021/12/15 00:55:23;;;;;;;30.03;18.77;;;;;;;5.54;100.00;152784.63;5077831;28;20470;-76
2021/12/15 00:58:00;;;;;;;30.00;18.20;;;;;;;5.54;100.00;152784.63;5092049;28;20429;-76
2021/12/15 01:00:39;;;;;;;34.80;20.23;;;;;;;5.57;100.00;152792.38;5075444;28;20548;-76
2021/12/15 01:03:15;;;;;;;28.10;18.73;;;;;;;5.59;100.00;152796.25;5080503;28;20952;-76
2021/12/15 01:05:55;;;;;;;31.17;19.37;;;;;;;5.59;100.00;152796.25;5072858;28;20560;-76
2021/12/15 01:08:35;;;;;;;31.10;19.80;;;;;;;5.59;100.00;152797.50;5081069;28;20537;-76
2021/12/15 01:11:19;;;;;;;35.20;21.03;;;;;;;5.59;100.00;152797.50;5057224;28;20434;-75
2021/12/15 01:19:52;;;;;;;33.97;20.60;;;;;;;5.56;100.00;152789.75;5072520;28;20470;-76
2021/12/15 01:22:31;;;;;;;34.17;20.13;;;;;;;5.56;100.00;152789.75;5081107;28;20444;-76
2021/12/15 01:25:11;;;;;;;36.07;20.70;;;;;;;5.62;100.00;152805.25;5089649;28;20766;-75
2021/12/15 01:27:47;;;;;;;28.30;19.60;;;;;;;5.59;100.00;152797.50;5092800;28;20452;-75
2021/12/15 01:30:24;;;;;;;31.83;19.33;;;;;;;5.58;100.00;152794.97;5063427;28;20940;-75
2021/12/15 01:33:01;;;;;;;32.77;19.57;;;;;;;5.54;100.00;152784.63;5075846;28;20527;-76
2021/12/15 01:35:38;;;;;;;31.60;18.80;;;;;;;5.51;100.00;152776.88;5067567;28;20438;-75
2021/12/15 01:38:17;;;;;;;27.77;17.10;;;;;;;5.50;100.00;152774.31;5057810;28;20525;-75
2021/12/15 01:40:53;;;;;;;27.30;18.50;;;;;;;5.50;100.00;152774.31;5092077;28;20841;-76
2021/12/15 01:43:37;;;;;;;28.67;18.63;;;;;;;5.52;100.00;152779.47;5091721;28;20472;-75
2021/12/15 01:49:09;;;;;;;33.33;19.03;;;;;;;5.56;100.00;152789.75;5073661;28;20457;-76
2021/12/15 01:51:45;;;;;;;30.40;20.60;;;;;;;5.58;100.00;152793.66;5071566;28;20445;-76
2021/12/15 01:54:23;;;;;;;30.30;18.80;;;;;;;5.55;100.00;152787.22;5056251;28;20541;-75
2021/12/15 01:57:00;;;;;;;31.50;18.47;;;;;;;5.50;100.00;152775.63;5056109;28;20452;-76
2021/12/15 01:59:35;;;;;;;24.60;16.37;;;;;;;5.54;100.00;152784.63;5070886;28;20830;-76
2021/12/15 02:02:12;;;;;;;24.60;13.47;;;;;;;5.54;100.00;152784.63;5071812;28;20461;-75
2021/12/15 02:04:48;;;;;;;25.13;14.23;;;;;;;5.53;100.00;152783.31;5062183;28;20441;-76
2021/12/15 02:07:25;;;;;;;24.23;14.60;;;;;;;5.48;100.00;152769.19;5090737;28;20871;-76
2021/12/15 02:10:06;;;;;;;27.57;18.00;;;;;;;5.49;100.00;152773.03;5091623;28;20445;-76
2021/12/15 02:12:44;;;;;;;26.30;16.40;;;;;;;5.49;100.00;152771.72;5075724;28;20417;-76
2021/12/15 02:15:24;;;;;;;22.57;13.83;;;;;;;5.52;100.00;152779.47;5091836;28;20484;-76
2021/12/15 02:18:01;;;;;;;25.57;15.90;;;;;;;5.53;100.00;152782.06;5066702;28;20543;-75
2021/12/15 02:20:39;;;;;;;19.07;13.20;;;;;;;5.56;100.00;152789.75;5075704;28;20875;-76
2021/12/15 02:23:18;;;;;;;22.63;14.60;;;;;;;5.55;100.00;152787.22;5073258;28;20440;-76
2021/12/15 02:25:53;;;;;;;18.23;12.70;;;;;;;5.52;100.00;152779.47;5090868;28;20494;-75
2021/12/15 02:28:30;;;;;;;18.23;14.07;;;;;;;5.53;100.00;152782.06;5085335;28;20448;-76
2021/12/15 02:31:13;;;;;;;21.27;14.70;;;;;;;5.55;100.00;152787.22;5076011;28;20463;-76
2021/12/15 02:33:58;;;;;;;23.43;15.90;;;;;;;5.50;100.00;152774.31;5075834;28;20441;-75
2021/12/15 02:39:44;;;;;;;24.43;16.00;;;;;;;5.52;100.00;152779.47;4999945;28;20457;-75
2021/12/15 02:42:21;;;;;;;22.03;14.93;;;;;;;5.51;100.00;152776.88;4993536;28;20503;-76
2021/12/15 02:44:57;;;;;;;24.30;15.70;;;;;;;5.52;100.00;152780.78;5060729;28;20484;-75
2021/12/15 02:47:33;;;;;;;23.83;16.23;;;;;;;5.49;100.00;152773.03;5091168;28;20429;-76
2021/12/15 02:50:13;;;;;;;19.97;14.67;;;;;;;5.51;100.00;152776.88;5090465;28;20444;-76
2021/12/15 02:52:51;;;;;;;23.33;14.73;;;;;;;5.51;100.00;152776.88;5092140;28;20443;-76
2021/12/15 02:55:26;;;;;;;20.80;14.53;;;;;;;5.53;100.00;152782.06;5086556;28;20474;-76
2021/12/15 02:58:02;;;;;;;20.20;15.27;;;;;;;5.53;100.00;152783.31;5107963;28;20433;-76
2021/12/15 03:00:48;;;;;;;22.90;15.70;;;;;;;5.52;100.00;152779.47;5074749;28;20472;-76
2021/12/15 03:03:52;;;;;;;20.90;14.27;;;;;;;5.54;100.00;152784.63;5092301;28;20421;-75
2021/12/15 03:06:35;;;;;;;13.80;10.30;;;;;;;5.49;100.00;152771.72;5090084;28;20441;-76
2021/12/15 03:15:15;;;;;;;15.43;10.60;;;;;;;5.48;100.00;152769.19;5088936;28;21149;-76
2021/12/15 03:18:11;;;;;;;16.40;13.03;;;;;;;5.51;100.00;152776.88;5011105;28;20444;-75
2021/12/15 03:20:50;;;;;;;19.40;13.50;;;;;;;5.51;100.00;152778.19;5055372;28;20466;-76
2021/12/15 03:23:30;;;;;;;19.20;13.27;;;;;;;5.54;100.00;152784.63;5075778;28;20418;-76
2021/12/15 03:26:09;;;;;;;19.70;13.70;;;;;;;5.58;100.00;152793.66;5086744;28;20441;-75
2021/12/15 03:34:48;;;;;;;16.60;13.00;;;;;;;5.52;100.00;152780.78;5094164;28;21018;-75
2021/12/15 03:37:25;;;;;;;18.83;14.93;;;;;;;5.58;100.00;152793.66;5078500;28;20431;-76
2021/12/15 03:40:03;;;;;;;18.83;13.53;;;;;;;5.56;100.00;152789.75;5096421;28;20220;-76
2021/12/15 03:42:42;;;;;;;18.93;13.50;;;;;;;5.56;100.00;152788.50;5095157;28;20445;-75
2021/12/15 03:45:24;;;;;;;20.60;14.13;;;;;;;5.53;100.00;152782.06;5094197;28;20476;-76
2021/12/15 03:48:04;;;;;;;17.83;12.63;;;;;;;5.51;100.00;152776.88;5091699;28;20471;-76
2021/12/15 03:50:40;;;;;;;17.73;12.87;;;;;;;5.51;100.00;152776.88;5094598;28;20486;-76
2021/12/15 03:53:17;;;;;;;19.40;13.73;;;;;;;5.48;100.00;152769.19;5077426;28;20444;-76
2021/12/15 03:55:53;;;;;;;17.67;13.40;;;;;;;5.49;100.00;152771.72;5094493;28;20440;-76
2021/12/15 03:58:30;;;;;;;16.27;12.27;;;;;;;5.51;100.00;152778.19;5078497;28;20794;-76
2021/12/15 04:01:11;;;;;;;16.43;12.80;;;;;;;5.53;100.00;152782.06;5093149;28;20469;-76
2021/12/15 04:03:48;;;;;;;15.73;11.57;;;;;;;5.49;100.00;152773.03;5093921;28;20871;-75
2021/12/15 04:06:28;;;;;;;16.33;10.47;;;;;;;5.50;100.00;152774.31;5087732;28;20537;-75
2021/12/15 04:09:07;;;;;;;18.10;12.20;;;;;;;5.43;100.00;152757.53;5074790;28;20445;-75
2021/12/15 04:11:42;;;;;;;18.67;13.73;;;;;;;5.45;100.00;152762.69;5094206;28;20854;-76
2021/12/15 04:14:23;;;;;;;20.87;13.83;;;;;;;5.48;100.00;152769.19;5093337;28;20441;-76
2021/12/15 04:17:03;;;;;;;21.20;13.83;;;;;;;5.49;100.00;152771.72;5093998;28;20433;-76
2021/12/15 04:19:39;;;;;;;16.37;13.10;;;;;;;5.44;100.00;152760.13;5093485;28;20448;-76
2021/12/15 04:22:15;;;;;;;15.57;12.47;;;;;;;5.47;100.00;152766.59;5092981;28;20484;-76
2021/12/15 04:24:51;;;;;;;16.50;11.53;;;;;;;5.47;100.00;152766.59;5093517;28;20460;-75
2021/12/15 04:27:27;;;;;;;21.37;13.73;;;;;;;5.46;100.00;152765.28;5089009;28;20806;-76
2021/12/15 04:30:06;;;;;;;11.20;9.53;;;;;;;5.51;100.00;152778.19;5090535;28;20445;-76
2021/12/15 04:32:44;;;;;;;12.47;9.80;;;;;;;5.45;100.00;152762.69;5076285;28;20437;-75
2021/12/15 04:35:19;;;;;;;12.77;10.40;;;;;;;5.46;100.00;152764.00;5074982;28;20477;-76
2021/12/15 04:37:55;;;;;;;14.17;11.70;;;;;;;5.45;100.00;152761.44;5079158;28;20444;-76
2021/12/15 04:40:31;;;;;;;12.20;10.90;;;;;;;5.45;100.00;152761.44;5074078;28;20473;-76
2021/12/15 04:43:07;;;;;;;13.33;10.20;;;;;;;5.42;100.00;152753.69;5093041;28;20802;-76
2021/12/15 04:45:44;;;;;;;12.63;10.30;;;;;;;5.41;100.00;152752.41;5092681;28;20575;-75
2021/12/15 04:48:19;;;;;;;13.47;10.37;;;;;;;5.47;100.00;152766.59;5075498;28;20442;-76
2021/12/15 04:50:55;;;;;;;9.73;8.70;;;;;;;5.42;100.00;152753.69;5084199;28;20973;-75
2021/12/15 04:53:31;;;;;;;11.50;8.67;;;;;;;5.39;100.00;152747.25;5092880;28;20774;-75
2021/12/15 04:56:07;;;;;;;10.20;8.10;;;;;;;5.35;100.00;152735.63;5084172;28;20445;-76
2021/12/15 04:58:43;;;;;;;9.80;8.03;;;;;;;5.34;100.00;152734.38;5091380;28;20544;-76
2021/12/15 05:01:20;;;;;;;8.70;6.37;;;;;;;5.41;100.00;152751.09;5093265;28;20859;-75
2021/12/15 05:03:59;;;;;;;7.60;4.80;;;;;;;5.37;100.00;152742.09;5077236;28;20860;-76
2021/12/15 05:06:35;;;;;;;11.43;8.13;;;;;;;5.32;100.00;152729.16;5083392;28;20454;-76
2021/12/15 05:09:11;;;;;;;8.60;7.60;;;;;;;5.32;100.00;152729.16;5072517;28;20454;-76
2021/12/15 05:11:47;;;;;;;8.70;7.00;;;;;;;5.34;100.00;152733.06;5077902;28;20480;-75
2021/12/15 05:14:24;;;;;;;7.97;5.20;;;;;;;5.33;100.00;152731.78;5092503;28;20452;-76
2021/12/15 05:17:01;;;;;;;7.00;5.90;;;;;;;5.41;100.00;152751.09;5077495;28;20444;-76
2021/12/15 05:19:36;;;;;;;8.07;6.20;;;;;;;5.40;100.00;152748.56;5092443;28;20796;-76
2021/12/15 05:22:13;;;;;;;10.90;7.43;;;;;;;5.39;100.00;152747.25;5092568;28;20465;-75
2021/12/15 05:24:49;;;;;;;11.13;8.40;;;;;;;5.35;100.00;152735.63;5092313;28;20767;-75
2021/12/15 05:27:24;;;;;;;13.40;11.10;;;;;;;5.36;100.00;152739.50;5098060;28;20444;-76
2021/12/15 05:30:00;;;;;;;16.93;12.57;;;;;;;5.36;100.00;152738.22;5089490;28;20453;-75
2021/12/15 05:32:37;;;;;;;12.07;9.77;;;;;;;5.32;100.00;152729.16;5092190;28;20511;-76
2021/12/15 05:35:16;;;;;;;14.47;10.50;;;;;;;5.31;100.00;152726.63;5092740;28;20779;-75
2021/12/15 05:37:59;;;;;;;4.83;4.30;;;;;;;5.26;100.00;152712.44;5077963;28;20442;-76
2021/12/15 05:40:35;;;;;;;7.93;6.20;;;;;;;5.31;100.00;152725.31;5073625;28;20808;-76
2021/12/15 05:43:11;;;;;;;11.47;9.77;;;;;;;5.29;100.00;152720.19;5084148;28;20453;-76
2021/12/15 05:45:48;;;;;;;10.43;8.47;;;;;;;5.29;100.00;152720.19;5092858;28;20469;-76
2021/12/15 05:48:25;;;;;;;10.00;8.10;;;;;;;5.27;100.00;152715.03;5076320;28;20935;-75
2021/12/15 05:51:00;;;;;;;10.90;8.37;;;;;;;5.26;100.00;152712.44;5092136;28;20441;-76
2021/12/15 05:53:36;;;;;;;10.43;8.60;;;;;;;5.23;100.00;152704.69;5093270;28;20498;-76
2021/12/15 05:56:12;;;;;;;10.10;8.97;;;;;;;5.26;100.00;152713.75;5092233;28;20471;-76
2021/12/15 05:58:49;;;;;;;9.73;7.57;;;;;;;5.26;100.00;152712.44;5090319;28;20860;-76
2021/12/15 06:01:24;;;;;;;11.97;10.17;;;;;;;5.28;100.00;152718.88;5092914;28;20455;-76
2021/12/15 06:04:01;;;;;;;12.23;9.70;;;;;;;5.29;100.00;152720.19;5090417;28;20449;-76
2021/12/15 06:06:37;;;;;;;14.10;12.23;;;;;;;5.26;100.00;152713.75;5087512;28;20437;-77
2021/12/15 06:09:13;;;;;;;11.07;9.30;;;;;;;5.22;100.00;152702.09;5087593;28;20444;-76
2021/12/15 06:11:49;;;;;;;13.50;10.23;;;;;;;5.30;100.00;152722.72;5085949;28;20936;-76
2021/12/15 06:14:27;;;;;;;13.93;10.90;;;;;;;5.28;100.00;152717.59;5074770;28;20834;-76
2021/12/15 06:17:08;;;;;;;15.87;11.93;;;;;;;5.29;100.00;152720.19;5072164;28;20509;-75
2021/12/15 06:19:44;;;;;;;17.03;12.50;;;;;;;5.28;100.00;152717.59;5088900;28;20437;-76
2021/12/15 06:22:25;;;;;;;16.87;13.10;;;;;;;5.27;100.00;152716.28;5092833;28;20472;-76
2021/12/15 06:25:00;;;;;;;20.37;14.07;;;;;;;5.34;100.00;152733.06;5090434;28;20441;-76
2021/12/15 06:27:36;;;;;;;17.43;13.03;;;;;;;5.38;100.00;152744.66;5087167;28;20452;-75
2021/12/15 06:30:12;;;;;;;17.80;13.57;;;;;;;5.33;100.00;152730.47;5080765;28;20462;-76
2021/12/15 06:32:48;;;;;;;18.57;13.90;;;;;;;5.33;100.00;152730.47;5081046;28;20441;-76
2021/12/15 06:35:25;;;;;;;18.30;12.80;;;;;;;5.30;100.00;152722.72;5087503;28;20898;-76
2021/12/15 06:38:01;;;;;;;12.70;10.00;;;;;;;5.30;100.00;152724.03;5085844;28;20436;-76
2021/12/15 06:40:36;;;;;;;13.50;11.00;;;;;;;5.29;100.00;152720.19;5074677;28;20800;-76
2021/12/15 06:43:12;;;;;;;15.40;11.67;;;;;;;5.30;100.00;152724.03;5088981;28;20448;-76
2021/12/15 06:45:59;;;;;;;15.57;11.90;;;;;;;5.26;100.00;152712.44;5058197;28;20474;-76
2021/12/15 07:00:27;;;;;;;16.43;13.83;;;;;;;5.36;100.00;152738.22;5055047;28;20466;-75
2021/12/15 07:03:04;;;;;;;19.23;17.13;;;;;;;5.37;100.00;152740.81;5074546;28;20962;-76
2021/12/15 07:05:40;;;;;;;19.17;14.70;;;;;;;5.29;100.00;152720.19;5078771;28;20448;-76
2021/12/15 07:08:18;;;;;;;19.17;14.37;;;;;;;5.29;100.00;152721.47;5075015;28;20425;-75
2021/12/15 07:10:53;;;;;;;18.50;14.07;;;;;;;5.24;100.00;152707.28;5088588;28;20536;-74
2021/12/15 07:13:30;;;;;;;20.23;15.27;;;;;;;5.22;100.00;152703.41;5089389;28;20817;-75
2021/12/15 07:16:08;;;;;;;19.53;13.13;;;;;;;5.17;100.00;152690.50;5088928;28;20440;-75
2021/12/15 07:18:51;;;;;;;20.23;14.43;;;;;;;5.17;100.00;152689.22;5075279;28;20481;-74
2021/12/15 07:21:33;;;;;;;20.17;14.73;;;;;;;5.23;100.00;152704.69;5090440;28;20500;-75
2021/12/15 07:24:10;;;;;;;20.97;14.50;;;;;;;5.18;100.00;152691.81;5090239;28;20445;-75
2021/12/15 07:26:46;;;;;;;20.73;14.57;;;;;;;5.17;100.00;152690.50;5082790;28;20984;-75
2021/12/15 07:29:21;;;;;;;20.80;15.23;;;;;;;5.16;100.00;152686.66;5086153;28;20491;-75
2021/12/15 07:31:57;;;;;;;26.97;18.97;;;;;;;5.22;100.00;152702.09;5087650;28;20443;-75
2021/12/15 07:34:33;;;;;;;19.93;15.33;;;;;;;5.20;100.00;152698.25;5086290;28;20457;-75
2021/12/15 07:37:09;;;;;;;20.40;15.20;;;;;;;5.26;100.00;152712.44;5060928;28;20955;-76
2021/12/15 07:39:54;;;;;;;22.63;16.10;;;;;;;5.28;100.00;152717.59;5081867;28;20457;-75
2021/12/15 07:42:35;;;;;;;19.67;13.70;;;;;;;5.26;100.00;152712.44;5086495;28;20468;-75
2021/12/15 07:45:12;;;;;;;18.33;12.37;;;;;;;5.19;100.00;152695.66;5084142;28;20456;-75
2021/12/15 07:47:48;;;;;;;18.70;13.93;;;;;;;5.18;100.00;152691.81;5078165;28;20444;-75
2021/12/15 07:50:24;;;;;;;16.07;12.93;;;;;;;5.20;100.00;152696.94;5069389;28;20448;-74
2021/12/15 07:53:00;;;;;;;17.50;14.37;;;;;;;5.23;100.00;152704.69;5074806;28;20432;-75
2021/12/15 07:55:38;;;;;;;17.43;13.20;;;;;;;5.26;100.00;152713.75;5085916;28;20880;-76
2021/12/15 07:58:15;;;;;;;24.23;16.00;;;;;;;5.24;100.00;152707.28;5072154;28;20442;-75
2021/12/15 08:00:51;;;;;;;15.30;11.90;;;;;;;5.16;100.00;152686.66;5084075;28;20436;-74
2021/12/15 08:03:27;;;;;;;17.63;10.63;;;;;;;5.12;100.00;152676.31;5095923;28;20420;-74
2021/12/15 08:06:03;;;;;;;12.00;9.03;;;;;;;5.10;100.00;152671.19;5089898;28;20456;-75
2021/12/15 08:08:38;;;;;;;16.20;12.07;;;;;;;5.20;100.00;152698.25;5088656;28;20547;-74
2021/12/15 08:11:17;;;;;;;14.77;9.80;;;;;;;5.13;100.00;152678.94;5093403;28;20464;-75
2021/12/15 08:13:52;;;;;;;15.27;10.37;;;;;;;5.15;100.00;152684.06;5087926;28;20456;-76
2021/12/15 08:16:27;;;;;;;14.93;10.77;;;;;;;5.12;100.00;152676.31;5092569;28;20832;-75
2021/12/15 08:19:04;;;;;;;14.27;9.90;;;;;;;5.12;100.00;152676.31;5090985;28;20432;-74
2021/12/15 08:21:39;;;;;;;14.00;9.33;;;;;;;5.13;100.00;152680.22;5086399;28;20896;-75
2021/12/15 08:24:15;;;;;;;12.77;9.83;;;;;;;5.13;100.00;152678.94;5087812;28;20807;-75
2021/12/15 08:26:52;;;;;;;10.33;7.17;;;;;;;5.21;100.00;152699.56;5092898;28;20707;-75
2021/12/15 08:29:28;;;;;;;11.07;8.33;;;;;;;5.08;100.00;152666.03;5093682;28;20449;-75
2021/12/15 08:32:04;;;;;;;10.43;9.37;;;;;;;5.11;100.00;152673.78;5093279;28;20452;-75
2021/12/15 08:34:40;;;;;;;11.03;8.80;;;;;;;5.11;100.00;152673.78;5094153;28;20460;-74
2021/12/15 08:37:16;;;;;;;11.33;8.50;;;;;;;5.08;100.00;152666.03;5086510;28;20809;-75
2021/12/15 08:39:51;;;;;;;12.87;8.53;;;;;;;5.11;100.00;152673.78;5082110;28;20464;-76
2021/12/15 08:42:29;;;;;;;10.13;7.60;;;;;;;5.13;100.00;152678.94;5092435;28;20871;-76
2021/12/15 08:47:52;;;;;;;9.43;7.57;;;;;;;5.16;100.00;152687.97;5011767;28;20452;-82
2021/12/15 08:50:33;;;;;;;8.57;6.97;;;;;;;5.08;100.00;152666.03;5009645;28;20479;-82
2021/12/15 08:53:11;;;;;;;10.80;8.43;;;;;;;5.05;100.00;152658.31;5003880;28;20480;-82
2021/12/15 08:55:49;;;;;;;11.57;7.97;;;;;;;5.13;100.00;152680.22;4997130;28;20559;-82
2021/12/15 08:58:27;;;;;;;9.37;6.53;;;;;;;5.09;100.00;152669.88;4998116;28;20549;-82
2021/12/15 09:01:05;;;;;;;9.53;6.83;;;;;;;5.13;100.00;152678.94;4996741;28;20806;-82
2021/12/15 09:03:45;;;;;;;12.23;7.50;;;;;;;5.07;100.00;152663.44;4997492;28;20476;-82
2021/12/15 09:06:22;;;;;;;10.03;7.73;;;;;;;5.15;100.00;152684.06;4994101;28;20437;-82
2021/12/15 09:08:58;;;;;;;10.50;7.20;;;;;;;5.08;100.00;152666.03;4996634;28;20539;-82
2021/12/15 09:11:35;;;;;;;12.73;8.27;;;;;;;5.11;100.00;152673.78;4998373;28;20448;-82
2021/12/15 09:14:12;;;;;;;9.70;7.03;;;;;;;5.12;100.00;152676.31;5000841;28;20449;-82
2021/12/15 09:16:50;;;;;;;10.80;8.07;;;;;;;5.19;100.00;152695.66;5011527;28;20539;-82
2021/12/15 09:19:27;;;;;;;10.63;7.13;;;;;;;5.12;100.00;152676.31;5013139;28;20444;-81
2021/12/15 09:22:03;;;;;;;8.03;6.13;;;;;;;5.10;100.00;152671.19;5009447;28;20950;-81
2021/12/15 09:24:38;;;;;;;8.40;6.47;;;;;;;5.10;100.00;152672.47;5013008;28;20452;-82
2021/12/15 09:27:14;;;;;;;13.30;9.13;;;;;;;5.06;100.00;152660.84;5012312;28;20444;-81
2021/12/15 09:29:51;;;;;;;11.97;10.33;;;;;;;4.99;100.00;152644.13;5013605;28;20451;-81
2021/12/15 09:32:26;;;;;;;16.93;8.43;;;;;;;5.07;100.00;152663.44;5012662;28;20444;-81
2021/12/15 09:35:04;;;;;;;13.97;10.63;;;;;;;5.09;100.00;152668.59;5011072;28;20443;-81
2021/12/15 09:37:40;;;;;;;14.23;9.73;;;;;;;5.11;100.00;152673.78;5029522;28;20827;-81
2021/12/15 09:40:18;;;;;;;16.10;9.17;;;;;;;5.20;100.00;152696.94;5012467;28;20440;-81
2021/12/15 09:42:53;;;;;;;10.97;8.13;;;;;;;5.17;100.00;152689.22;5004670;28;20887;-81
2021/12/15 09:45:41;;;;;;;17.70;13.90;;;;;;;5.10;100.00;152671.19;5011954;28;20440;-81
2021/12/15 09:57:17;;;;;;;9.80;6.30;;;;;;;5.16;100.00;152686.66;5011365;28;20453;-81
2021/12/15 10:02:55;;;;;;;11.50;8.90;;;;;;;5.19;100.00;152695.66;5009669;28;20514;-82
2021/12/15 10:05:46;;;;;;;12.53;8.33;;;;;;;5.13;100.00;152680.22;5026600;28;20488;-81
2021/12/15 10:20:05;;;;;;;9.83;7.13;;;;;;;4.99;100.00;152644.13;4995830;28;20843;-81
2021/12/15 10:22:44;;;;;;;10.07;7.57;;;;;;;4.99;100.00;152642.81;4996063;28;20464;-81
2021/12/15 10:25:24;;;;;;;8.37;6.63;;;;;;;4.97;100.00;152637.69;5004285;28;20455;-81
2021/12/15 10:28:03;;;;;;;10.93;8.33;;;;;;;4.99;100.00;152642.81;5011402;28;20435;-81
2021/12/15 10:30:40;;;;;;;7.70;6.50;;;;;;;5.10;100.00;152672.47;5024469;28;20540;-81
2021/12/15 10:33:18;;;;;;;9.47;7.47;;;;;;;5.15;100.00;152684.06;5007420;28;20439;-81
2021/12/15 10:35:57;;;;;;;9.90;7.10;;;;;;;5.19;100.00;152694.41;5023946;28;20457;-81
2021/12/15 10:38:39;;;;;;;10.53;8.50;;;;;;;5.14;100.00;152681.47;5010369;28;20476;-80
2021/12/15 10:41:17;;;;;;;11.30;8.10;;;;;;;5.08;100.00;152666.03;5008547;28;20453;-81
2021/12/15 10:43:56;;;;;;;10.83;7.50;;;;;;;5.09;100.00;152668.59;5026500;28;21078;-80
2021/12/15 10:46:34;;;;;;;15.50;11.23;;;;;;;5.08;100.00;152667.34;4999513;28;20837;-80
2021/12/15 10:49:12;;;;;;;15.03;11.43;;;;;;;5.06;100.00;152662.16;5010322;28;20448;-80
2021/12/15 10:51:51;;;;;;;12.43;8.60;;;;;;;5.04;100.00;152655.69;5011691;28;20490;-81
2021/12/15 10:54:30;;;;;;;9.73;7.40;;;;;;;5.07;100.00;152663.44;5012089;28;20539;-81
2021/12/15 10:57:09;;;;;;;10.87;7.43;;;;;;;5.08;100.00;152666.03;5009160;28;20452;-80
2021/12/15 10:59:46;;;;;;;8.03;6.20;;;;;;;5.13;100.00;152680.22;5011171;28;20451;-80
2021/12/15 11:02:25;;;;;;;7.33;5.33;;;;;;;5.08;100.00;152667.34;5001914;28;20477;-81
2021/12/15 11:05:05;;;;;;;7.23;5.07;;;;;;;5.01;100.00;152647.97;5009041;28;20432;-80
2021/12/15 11:07:43;;;;;;;7.97;5.67;;;;;;;5.04;100.00;152655.69;5027453;28;20424;-80
2021/12/15 11:10:22;;;;;;;7.83;5.10;;;;;;;5.07;100.00;152663.44;5010142;28;20804;-80
2021/12/15 11:12:59;;;;;;;5.70;4.80;;;;;;;5.10;100.00;152671.19;5009629;28;20799;-81
2021/12/15 11:15:40;;;;;;;8.97;6.63;;;;;;;5.19;100.00;152694.41;5009126;28;20939;-80
2021/12/15 11:18:17;;;;;;;8.53;6.90;;;;;;;5.19;100.00;152694.41;5011392;28;20444;-80
2021/12/15 11:20:56;;;;;;;9.00;7.77;;;;;;;5.05;100.00;152658.31;4999044;28;20482;-81
2021/12/15 11:23:34;;;;;;;10.33;6.80;;;;;;;5.16;100.00;152687.97;4995164;28;20541;-80
2021/12/15 11:26:12;;;;;;;9.00;6.90;;;;;;;5.12;100.00;152676.31;4995432;28;20452;-81
2021/12/15 11:28:50;;;;;;;7.80;6.73;;;;;;;5.13;100.00;152678.94;5009417;28;20571;-80
2021/12/15 11:31:28;;;;;;;10.13;7.20;;;;;;;5.14;100.00;152681.47;5008624;28;20448;-80
2021/12/15 11:34:06;;;;;;;8.47;6.97;;;;;;;5.15;100.00;152684.06;5008045;28;20969;-80
2021/12/15 11:36:44;;;;;;;8.53;6.77;;;;;;;5.15;100.00;152684.06;5008562;28;20476;-81
2021/12/15 11:39:24;;;;;;;11.50;8.10;;;;;;;5.20;100.00;152696.94;5012212;28;20433;-80
2021/12/15 11:42:02;;;;;;;9.93;7.47;;;;;;;5.13;100.00;152678.94;5013484;28;20460;-80
2021/12/15 11:44:43;;;;;;;9.43;6.30;;;;;;;5.17;100.00;152690.50;4998433;28;20970;-80
2021/12/15 11:47:23;;;;;;;12.10;7.60;;;;;;;5.18;100.00;152691.81;5013936;28;20487;-81
2021/12/15 11:50:07;;;;;;;10.93;7.17;;;;;;;5.27;100.00;152715.03;5014428;28;20923;-80
2021/12/15 11:52:45;;;;;;;10.87;8.47;;;;;;;5.16;100.00;152687.97;5014278;28;20433;-81
2021/12/15 11:55:25;;;;;;;12.30;10.37;;;;;;;5.13;100.00;152678.94;5003912;28;20448;-80
2021/12/15 11:58:01;;;;;;;9.77;7.53;;;;;;;5.13;100.00;152680.22;5014218;28;20539;-82
2021/12/15 12:00:36;;;;;;;11.20;7.30;;;;;;;5.13;100.00;152678.94;5006774;28;20506;-82
2021/12/15 12:03:14;;;;;;;11.60;8.37;;;;;;;5.16;100.00;152686.66;5014022;28;20966;-82
2021/12/15 12:05:50;;;;;;;10.87;8.07;;;;;;;5.18;100.00;152693.09;5014754;28;20440;-82
2021/12/15 12:08:27;;;;;;;12.93;10.13;;;;;;;5.18;100.00;152693.09;5013117;28;20451;-81
2021/12/15 12:11:15;;;;;;;10.90;8.10;;;;;;;5.16;100.00;152687.97;5010707;28;20571;-82
2021/12/15 12:13:58;;;;;;;9.37;8.07;;;;;;;5.10;100.00;152672.47;5014946;28;20480;-81
2021/12/15 12:16:33;;;;;;;11.40;9.60;;;;;;;5.24;100.00;152707.28;4999286;28;20453;-81
2021/12/15 12:19:10;;;;;;;9.87;8.83;;;;;;;5.11;100.00;152675.03;5011579;28;20448;-81
2021/12/15 12:21:45;;;;;;;9.90;7.80;;;;;;;5.07;100.00;152663.44;5013201;28;20452;-81
2021/12/15 12:24:21;;;;;;;12.27;9.47;;;;;;;5.05;100.00;152659.59;5011942;28;20452;-81
2021/12/15 12:26:58;;;;;;;9.07;8.13;;;;;;;5.01;100.00;152649.25;5013391;28;20451;-81
2021/12/15 12:29:34;;;;;;;9.40;8.17;;;;;;;5.03;100.00;152653.16;5012446;28;20452;-81
2021/12/15 12:32:11;;;;;;;9.63;8.27;;;;;;;5.03;100.00;152653.16;5011304;28;20924;-82
2021/12/15 12:34:47;;;;;;;11.13;7.90;;;;;;;5.11;100.00;152673.78;5013186;28;20893;-82
2021/12/15 12:37:23;;;;;;;10.53;8.37;;;;;;;5.11;100.00;152673.78;5015759;28;20441;-81
2021/12/15 12:40:04;;;;;;;9.33;7.53;;;;;;;5.10;100.00;152672.47;5014585;28;20452;-81
2021/12/15 12:42:41;;;;;;;11.30;8.80;;;;;;;5.16;100.00;152686.66;5011390;28;20445;-81
2021/12/15 12:45:23;;;;;;;9.43;8.37;;;;;;;5.21;100.00;152699.56;5012056;28;20535;-81
2021/12/15 12:48:28;;;;;;;7.87;7.03;;;;;;;5.17;100.00;152689.22;5014104;28;20448;-82
2021/12/15 13:00:36;;;;;;;10.40;8.43;;;;;;;5.19;100.00;152695.66;5013186;28;20440;-81
2021/12/15 13:03:16;;;;;;;10.23;9.10;;;;;;;5.15;100.00;152684.06;5012572;28;20475;-81
2021/12/15 13:05:53;;;;;;;9.57;7.63;;;;;;;5.23;100.00;152704.69;5012264;28;20460;-81
2021/12/15 13:08:38;;;;;;;9.93;8.67;;;;;;;5.17;100.00;152690.50;5012564;28;20544;-82
2021/12/15 13:11:18;;;;;;;9.97;8.23;;;;;;;5.13;100.00;152678.94;5012051;28;20456;-85
2021/12/15 13:13:57;;;;;;;8.33;7.47;;;;;;;5.13;100.00;152680.22;5011717;28;20516;-82